Enterprise, North Carolina
Current Conditions -  °F | °C
As of 3:35 PM on Thursday 29 Jan 2015 (Local Time) from KEXX Reporting Station
Broken Clouds Broken Clouds  
Wind Chill: 44°   Ceiling: 12000
Heat Index: 46°   Visibility: 10mi
Dew Point: 26°   Wind: 5mph
Humidity: 46%   Direction: 190°S
Pressure: 30.11"   Gusts: NA
Location:  35.7974°N, 80.2541°W
Report Text: KEXX 292035Z AUTO 19004KT 10SM SCT080 BKN120 08/M03 A3011 RMK AO2 T00771034
Loading
Personal Weather Stations






























Interactive Weather Map New forecast layout! Learn more

10-Day Weather Forecast

Advertisements
Track Severe Weather on mobile